Time;durP1;ratioP1;P1;durP2;ratioP2;P2;SDS_P1;SDS_P2;PMS_P1;PMS_P2;Temp;Humidity;BMP_temperature;BMP_pressure;BME280_temperature;BME280_humidity;BME280_pressure;Samples;Min_cycle;Max_cycle;Signal;HPM_P1;HPM_P2
2023/09/16 00:01:33;;;;;;;3.22;2.50;;;18.60;99.90;;;;;;5052283;28;20239;-65
2023/09/16 00:04:00;;;;;;;4.10;2.45;;;18.50;99.90;;;;;;5031527;28;20184;-65
2023/09/16 00:06:25;;;;;;;2.80;2.35;;;18.50;99.90;;;;;;5060006;28;20280;-66
2023/09/16 00:08:51;;;;;;;3.03;2.65;;;18.50;99.90;;;;;;5038655;28;20201;-65
2023/09/16 00:11:20;;;;;;;3.83;2.78;;;18.50;99.90;;;;;;5038790;28;20177;-65
2023/09/16 00:13:45;;;;;;;2.80;2.25;;;18.50;99.90;;;;;;5055574;28;20292;-65
2023/09/16 00:16:15;;;;;;;2.92;2.38;;;18.40;99.90;;;;;;5054471;28;20208;-65
2023/09/16 00:18:41;;;;;;;2.58;2.38;;;18.40;99.90;;;;;;5039799;28;20165;-65
2023/09/16 00:21:07;;;;;;;2.55;2.20;;;18.40;99.90;;;;;;5058227;28;20276;-65
2023/09/16 00:23:32;;;;;;;2.70;2.40;;;18.40;99.90;;;;;;5044083;28;20181;-65
2023/09/16 00:26:03;;;;;;;2.80;2.30;;;18.40;99.90;;;;;;5046206;28;20192;-65
2023/09/16 00:28:32;;;;;;;3.47;2.40;;;18.40;99.90;;;;;;5042069;28;20216;-65
2023/09/16 00:31:00;;;;;;;3.05;2.45;;;18.30;99.90;;;;;;5033950;28;20174;-66
2023/09/16 00:33:29;;;;;;;3.67;2.20;;;18.40;99.90;;;;;;5050561;28;20196;-66
2023/09/16 00:35:56;;;;;;;2.80;2.20;;;18.30;99.90;;;;;;5045551;28;20298;-65
2023/09/16 00:38:22;;;;;;;3.97;2.75;;;18.30;99.90;;;;;;5049816;28;20246;-65
2023/09/16 00:40:48;;;;;;;3.47;2.42;;;18.30;99.90;;;;;;5041787;28;20201;-65
2023/09/16 00:43:15;;;;;;;3.47;2.78;;;18.30;99.90;;;;;;5038474;28;20186;-66
2023/09/16 00:45:41;;;;;;;2.95;2.60;;;18.20;99.90;;;;;;5038787;28;20177;-66
2023/09/16 00:48:08;;;;;;;3.20;2.67;;;18.20;99.90;;;;;;5040638;28;20173;-66
2023/09/16 00:50:34;;;;;;;2.80;2.47;;;18.20;99.90;;;;;;5037802;28;20177;-66
2023/09/16 00:53:00;;;;;;;3.13;2.78;;;18.20;99.90;;;;;;5049832;28;20197;-65
2023/09/16 00:55:28;;;;;;;3.72;2.58;;;18.20;99.90;;;;;;5038418;28;20296;-67
2023/09/16 00:58:00;;;;;;;3.10;2.47;;;18.20;99.90;;;;;;5050013;28;20173;-64
2023/09/16 01:00:30;;;;;;;4.32;2.90;;;18.20;99.90;;;;;;5054211;28;20217;-65
2023/09/16 01:02:58;;;;;;;4.55;3.00;;;18.20;99.90;;;;;;5071544;28;20181;-65
2023/09/16 01:05:29;;;;;;;2.55;2.30;;;18.20;99.90;;;;;;5046946;28;20260;-66
2023/09/16 01:07:59;;;;;;;3.15;2.75;;;18.20;99.90;;;;;;5038377;28;20197;-66
2023/09/16 01:10:25;;;;;;;3.22;2.65;;;18.10;99.90;;;;;;5045796;28;20174;-66
2023/09/16 01:12:56;;;;;;;3.15;2.42;;;18.10;99.90;;;;;;5048083;28;20231;-65
2023/09/16 01:15:27;;;;;;;3.95;2.78;;;18.10;99.90;;;;;;5046458;28;20285;-65
2023/09/16 01:18:19;;;;;;;3.08;2.53;;;18.10;99.90;;;;;;5044559;28;20169;-65
2023/09/16 01:20:45;;;;;;;3.63;2.92;;;18.10;99.90;;;;;;5067475;28;20173;-66
2023/09/16 01:23:11;;;;;;;3.00;2.63;;;18.10;99.90;;;;;;5037717;28;20177;-65
2023/09/16 01:25:37;;;;;;;4.18;2.72;;;18.10;99.90;;;;;;5053723;28;20173;-65
2023/09/16 01:28:03;;;;;;;3.13;2.47;;;18.00;99.90;;;;;;5054216;28;20188;-66
2023/09/16 01:30:36;;;;;;;2.85;2.55;;;18.00;99.90;;;;;;5030344;28;20197;-65
2023/09/16 01:33:11;;;;;;;3.90;2.75;;;18.00;99.90;;;;;;5045523;28;20201;-65
2023/09/16 01:35:40;;;;;;;3.60;3.00;;;18.00;99.90;;;;;;5053895;28;20180;-65
2023/09/16 01:38:07;;;;;;;3.28;2.65;;;17.90;99.90;;;;;;5037525;28;20200;-65
2023/09/16 01:40:34;;;;;;;3.00;2.63;;;17.90;99.90;;;;;;5044863;28;20212;-65
2023/09/16 01:43:03;;;;;;;4.28;2.72;;;17.90;99.90;;;;;;5047184;28;20191;-65
2023/09/16 01:45:43;;;;;;;3.33;2.42;;;17.90;99.90;;;;;;5033402;28;20233;-66
2023/09/16 01:48:09;;;;;;;2.83;2.38;;;17.90;99.90;;;;;;5030208;28;20182;-65
2023/09/16 01:50:35;;;;;;;3.55;2.55;;;17.80;99.90;;;;;;5035392;28;20269;-65
2023/09/16 01:53:06;;;;;;;3.58;2.78;;;17.80;99.90;;;;;;5036208;28;20229;-66
2023/09/16 01:55:35;;;;;;;3.05;2.30;;;17.70;99.90;;;;;;5053390;28;20199;-66
2023/09/16 01:58:00;;;;;;;2.75;2.45;;;17.70;99.90;;;;;;5050467;28;20204;-65
2023/09/16 02:00:26;;;;;;;3.35;2.60;;;17.70;99.90;;;;;;5030462;28;20169;-66
2023/09/16 02:02:54;;;;;;;3.47;2.60;;;17.60;99.90;;;;;;5042726;28;20215;-65
2023/09/16 02:05:20;;;;;;;2.63;2.42;;;17.60;99.90;;;;;;5053054;28;20201;-66
2023/09/16 02:07:46;;;;;;;3.58;2.80;;;17.60;99.90;;;;;;5037436;28;20174;-66
2023/09/16 02:10:14;;;;;;;3.10;2.65;;;17.60;99.90;;;;;;5037340;28;20173;-65
2023/09/16 02:12:40;;;;;;;3.17;2.70;;;17.60;99.90;;;;;;5039596;28;20202;-65
2023/09/16 02:15:09;;;;;;;3.47;2.58;;;17.60;99.90;;;;;;5036372;28;20187;-65
2023/09/16 02:17:38;;;;;;;2.67;2.47;;;17.60;99.90;;;;;;5024982;28;20238;-66
2023/09/16 02:20:10;;;;;;;2.90;2.42;;;17.60;99.90;;;;;;5039041;28;20232;-66
2023/09/16 02:22:37;;;;;;;3.22;2.90;;;17.60;99.90;;;;;;5057271;28;20181;-66
2023/09/16 02:25:03;;;;;;;3.08;2.78;;;17.60;99.90;;;;;;5036967;28;20208;-66
2023/09/16 02:27:28;;;;;;;2.72;2.47;;;17.60;99.90;;;;;;5055227;28;20173;-66
2023/09/16 02:29:56;;;;;;;2.63;2.42;;;17.60;99.90;;;;;;5040707;28;20201;-66
2023/09/16 02:32:22;;;;;;;2.50;2.28;;;17.60;99.90;;;;;;5043034;28;20197;-66
2023/09/16 02:34:47;;;;;;;2.63;2.20;;;17.60;99.90;;;;;;5057551;28;20383;-64
2023/09/16 02:37:13;;;;;;;2.90;2.60;;;17.60;99.90;;;;;;5056605;28;20201;-67
2023/09/16 02:39:43;;;;;;;3.65;2.70;;;17.60;99.90;;;;;;5057407;28;20267;-66
2023/09/16 02:42:09;;;;;;;4.13;3.10;;;17.60;99.90;;;;;;5040642;28;20184;-67
2023/09/16 02:44:34;;;;;;;3.95;2.80;;;17.60;99.90;;;;;;5036362;28;20166;-66
2023/09/16 02:47:02;;;;;;;4.28;2.67;;;17.70;99.90;;;;;;5057564;28;20177;-67
2023/09/16 02:49:29;;;;;;;3.70;2.90;;;17.60;99.90;;;;;;5056979;28;20216;-66
2023/09/16 02:51:57;;;;;;;4.13;2.85;;;17.60;99.90;;;;;;5038311;28;20178;-66
2023/09/16 02:54:23;;;;;;;4.25;2.95;;;17.60;99.90;;;;;;5056537;28;20217;-66
2023/09/16 02:56:48;;;;;;;2.90;2.60;;;17.60;99.90;;;;;;5055995;28;20280;-66
2023/09/16 02:59:16;;;;;;;3.40;2.83;;;17.60;99.90;;;;;;5041314;28;20166;-68
2023/09/16 03:01:42;;;;;;;2.85;2.53;;;17.60;99.90;;;;;;5056826;28;20212;-70
2023/09/16 03:04:12;;;;;;;3.08;2.78;;;17.60;99.90;;;;;;5053986;28;20181;-68
2023/09/16 03:06:38;;;;;;;3.22;2.45;;;17.60;99.90;;;;;;5046398;28;20225;-69
2023/09/16 03:09:06;;;;;;;4.70;2.60;;;17.50;99.90;;;;;;5040718;28;20186;-71
2023/09/16 03:11:31;;;;;;;3.03;2.67;;;17.50;99.90;;;;;;5057260;28;20181;-69
2023/09/16 03:14:02;;;;;;;3.10;2.72;;;17.50;99.90;;;;;;5040506;28;20262;-70
2023/09/16 03:16:31;;;;;;;3.20;2.83;;;17.50;99.90;;;;;;5040443;28;20175;-71
2023/09/16 03:18:59;;;;;;;2.88;2.60;;;17.50;99.90;;;;;;5040444;28;20208;-69
2023/09/16 03:21:25;;;;;;;3.20;2.90;;;17.40;99.90;;;;;;5039409;28;20181;-70
2023/09/16 03:23:51;;;;;;;3.00;2.63;;;17.40;99.90;;;;;;5056858;28;20185;-67
2023/09/16 03:26:19;;;;;;;5.70;2.90;;;17.40;99.90;;;;;;5051246;28;20176;-70
2023/09/16 03:28:47;;;;;;;3.92;3.03;;;17.40;99.90;;;;;;5056637;28;20181;-70
2023/09/16 03:31:14;;;;;;;3.20;2.83;;;17.40;99.90;;;;;;5056729;28;20556;-71
2023/09/16 03:33:39;;;;;;;3.80;2.80;;;17.40;99.90;;;;;;5057043;28;20262;-68
2023/09/16 03:36:06;;;;;;;4.07;2.72;;;17.40;99.90;;;;;;5061332;28;20177;-70
2023/09/16 03:38:33;;;;;;;3.75;2.58;;;17.40;99.90;;;;;;5054447;28;20216;-70
2023/09/16 03:41:01;;;;;;;4.20;2.55;;;17.40;99.90;;;;;;5041812;28;20288;-68
2023/09/16 03:43:27;;;;;;;2.92;2.63;;;17.40;99.90;;;;;;5039282;28;20177;-70
2023/09/16 03:45:53;;;;;;;2.97;2.65;;;17.40;99.90;;;;;;5039213;28;20177;-70
2023/09/16 03:48:19;;;;;;;3.72;2.92;;;17.40;99.90;;;;;;5039641;28;20208;-70
2023/09/16 03:50:50;;;;;;;3.10;2.80;;;17.40;99.90;;;;;;5053116;28;20188;-68
2023/09/16 03:53:18;;;;;;;3.70;2.80;;;17.40;99.90;;;;;;5054238;28;20197;-68
2023/09/16 03:55:43;;;;;;;3.42;2.80;;;17.40;99.90;;;;;;5071917;28;20201;-70
2023/09/16 03:58:11;;;;;;;3.67;2.53;;;17.40;99.90;;;;;;5052808;28;20185;-69
2023/09/16 04:00:37;;;;;;;3.85;2.60;;;17.40;99.90;;;;;;5025001;28;20413;-70
2023/09/16 04:03:03;;;;;;;3.97;2.78;;;17.40;99.90;;;;;;5055430;28;20297;-70
2023/09/16 04:05:31;;;;;;;5.20;2.90;;;17.40;99.90;;;;;;5045923;28;20276;-70
2023/09/16 04:07:57;;;;;;;3.22;2.80;;;17.40;99.90;;;;;;5034234;28;20206;-70
2023/09/16 04:10:22;;;;;;;3.13;2.70;;;17.40;99.90;;;;;;5036748;28;20219;-68
2023/09/16 04:12:48;;;;;;;3.92;2.72;;;17.30;99.90;;;;;;5039079;28;20291;-70
2023/09/16 04:15:16;;;;;;;4.35;2.70;;;17.30;99.90;;;;;;5036875;28;20193;-70
2023/09/16 04:17:41;;;;;;;3.78;2.97;;;17.30;99.90;;;;;;5045877;28;20173;-69
2023/09/16 04:20:07;;;;;;;3.75;2.90;;;17.30;99.90;;;;;;5055401;28;20263;-68
2023/09/16 04:22:33;;;;;;;3.80;2.78;;;17.30;99.90;;;;;;5055618;28;20185;-70
2023/09/16 04:24:59;;;;;;;3.40;3.00;;;17.30;99.90;;;;;;5042872;28;20478;-67
2023/09/16 04:27:24;;;;;;;3.17;2.75;;;17.30;99.90;;;;;;5048109;28;20201;-70
2023/09/16 04:29:52;;;;;;;3.20;2.70;;;17.30;99.90;;;;;;5055371;28;20184;-66
2023/09/16 04:32:18;;;;;;;3.20;2.90;;;17.30;99.90;;;;;;5055556;28;20177;-69
2023/09/16 04:34:46;;;;;;;2.85;2.53;;;17.30;99.90;;;;;;5062812;28;20172;-70
2023/09/16 04:37:14;;;;;;;3.22;2.83;;;17.30;99.90;;;;;;5075772;28;20165;-70
2023/09/16 04:39:42;;;;;;;13.88;10.88;;;17.30;99.90;;;;;;5064298;28;20186;-70
2023/09/16 04:42:11;;;;;;;8.77;7.35;;;17.30;99.90;;;;;;5063359;28;20187;-66
2023/09/16 04:44:39;;;;;;;6.07;5.47;;;17.30;99.90;;;;;;5038267;28;20196;-70
2023/09/16 04:47:08;;;;;;;5.50;4.88;;;17.30;99.90;;;;;;5043391;28;20174;-70
2023/09/16 04:49:33;;;;;;;5.30;4.40;;;17.30;99.90;;;;;;5053747;28;20192;-70
2023/09/16 04:51:59;;;;;;;4.53;4.07;;;17.30;99.90;;;;;;5055308;28;20193;-69
2023/09/16 04:54:25;;;;;;;10.20;8.65;;;17.30;99.90;;;;;;5053344;28;20236;-70
2023/09/16 04:56:50;;;;;;;6.05;4.55;;;17.30;99.90;;;;;;5035805;28;20178;-70
2023/09/16 04:59:21;;;;;;;5.50;4.47;;;17.30;99.90;;;;;;5047986;28;20239;-70
2023/09/16 05:01:48;;;;;;;5.18;4.50;;;17.30;99.90;;;;;;5040140;28;20193;-70
2023/09/16 05:04:14;;;;;;;4.38;3.85;;;17.20;99.90;;;;;;5040580;28;20856;-69
2023/09/16 05:06:39;;;;;;;3.83;3.38;;;17.20;99.90;;;;;;5056819;28;20188;-69
2023/09/16 05:09:05;;;;;;;3.88;3.50;;;17.20;99.90;;;;;;5037839;28;20292;-70
2023/09/16 05:11:30;;;;;;;6.47;4.25;;;17.20;99.90;;;;;;5047464;28;20196;-68
2023/09/16 05:13:56;;;;;;;3.92;3.42;;;17.20;99.90;;;;;;5072060;28;20196;-70
2023/09/16 05:16:22;;;;;;;3.72;3.25;;;17.20;99.90;;;;;;5060271;28;20206;-69
2023/09/16 05:18:50;;;;;;;5.18;4.63;;;17.20;99.90;;;;;;5037029;28;20169;-70
2023/09/16 05:21:18;;;;;;;4.88;4.38;;;17.20;99.90;;;;;;5054151;28;20264;-71
2023/09/16 05:23:43;;;;;;;4.85;4.35;;;17.20;99.90;;;;;;5053461;28;20209;-71
2023/09/16 05:26:14;;;;;;;4.68;4.10;;;17.20;99.90;;;;;;5054205;28;20184;-70
2023/09/16 05:28:42;;;;;;;5.35;4.20;;;17.20;99.90;;;;;;5051191;28;20188;-70
2023/09/16 05:31:10;;;;;;;5.45;4.70;;;17.20;99.90;;;;;;5037836;28;20201;-70
2023/09/16 05:33:38;;;;;;;5.78;4.03;;;17.20;99.90;;;;;;5054099;28;20209;-70
2023/09/16 05:36:04;;;;;;;4.38;3.80;;;17.20;99.90;;;;;;5053598;28;20212;-70
2023/09/16 05:38:30;;;;;;;4.85;3.25;;;17.20;99.90;;;;;;5036608;28;20233;-68
2023/09/16 05:40:55;;;;;;;4.95;3.60;;;17.20;99.90;;;;;;5060233;28;20256;-70
2023/09/16 05:43:24;;;;;;;3.60;3.30;;;17.20;99.90;;;;;;5036429;28;20173;-69
2023/09/16 05:45:53;;;;;;;4.07;3.22;;;17.30;99.90;;;;;;5052977;28;20206;-69
2023/09/16 05:48:19;;;;;;;3.45;2.80;;;17.30;99.90;;;;;;5027168;28;20170;-70
2023/09/16 05:50:57;;;;;;;3.15;2.80;;;17.20;99.90;;;;;;5069339;28;20268;-70
2023/09/16 05:53:26;;;;;;;4.07;3.35;;;17.30;99.90;;;;;;5038649;28;20277;-70
2023/09/16 05:55:53;;;;;;;4.22;3.83;;;17.30;99.90;;;;;;5045179;28;20174;-71
2023/09/16 05:58:19;;;;;;;3.80;3.40;;;17.30;99.90;;;;;;5043939;28;20249;-70
2023/09/16 06:00:55;;;;;;;4.53;3.63;;;17.30;99.90;;;;;;5056188;28;20197;-68
2023/09/16 06:03:21;;;;;;;4.15;3.50;;;17.40;99.90;;;;;;5045312;28;20226;-70
2023/09/16 06:05:49;;;;;;;4.90;3.03;;;17.30;99.90;;;;;;5049517;28;20256;-68
2023/09/16 06:08:15;;;;;;;4.07;3.10;;;17.40;99.90;;;;;;5067692;28;20264;-71
2023/09/16 06:10:40;;;;;;;3.60;3.30;;;17.40;99.90;;;;;;5052023;28;20224;-70
2023/09/16 06:13:08;;;;;;;3.47;3.05;;;17.40;99.90;;;;;;5038823;28;20197;-72
2023/09/16 06:15:34;;;;;;;3.95;3.42;;;17.40;99.90;;;;;;5060678;28;20173;-69
2023/09/16 06:18:01;;;;;;;8.02;5.72;;;17.40;99.90;;;;;;5053616;28;20192;-65
2023/09/16 06:20:30;;;;;;;6.80;5.65;;;17.50;99.90;;;;;;5053498;28;20262;-68
2023/09/16 06:23:02;;;;;;;4.85;4.20;;;17.50;99.90;;;;;;5068482;28;20173;-69
2023/09/16 06:25:27;;;;;;;4.63;3.95;;;17.50;99.90;;;;;;5036803;28;20196;-68
2023/09/16 06:27:56;;;;;;;3.72;3.33;;;17.60;99.90;;;;;;5036212;28;20192;-69
2023/09/16 06:30:22;;;;;;;4.85;3.85;;;17.60;99.90;;;;;;5040911;28;20177;-69
2023/09/16 06:32:47;;;;;;;3.75;3.28;;;17.70;99.90;;;;;;5069971;28;20219;-68
2023/09/16 06:35:13;;;;;;;3.90;3.35;;;17.70;99.90;;;;;;5036889;28;20264;-67
2023/09/16 06:37:38;;;;;;;3.35;3.05;;;17.70;99.90;;;;;;5060560;28;20200;-68
2023/09/16 06:40:05;;;;;;;3.95;3.22;;;17.70;99.90;;;;;;5036945;28;20352;-69
2023/09/16 06:42:32;;;;;;;4.07;3.08;;;17.80;99.90;;;;;;5052876;28;20242;-69
2023/09/16 06:44:58;;;;;;;4.65;3.33;;;17.90;99.90;;;;;;5037015;28;20187;-69
2023/09/16 06:47:27;;;;;;;3.78;3.10;;;17.90;99.90;;;;;;5069666;28;20279;-68
2023/09/16 06:49:54;;;;;;;4.03;3.08;;;17.90;99.90;;;;;;5036436;28;20273;-68
2023/09/16 06:52:22;;;;;;;3.75;3.03;;;18.00;99.90;;;;;;5066535;28;20412;-66
2023/09/16 06:54:50;;;;;;;3.92;3.05;;;18.10;99.90;;;;;;5052013;28;20197;-69
2023/09/16 06:57:18;;;;;;;4.40;3.50;;;18.10;99.90;;;;;;5038098;28;20173;-69
2023/09/16 06:59:47;;;;;;;3.33;2.95;;;18.20;99.90;;;;;;5036242;28;20201;-67
2023/09/16 07:02:14;;;;;;;4.10;3.70;;;18.20;99.90;;;;;;5035029;28;20402;-69
2023/09/16 07:04:42;;;;;;;3.35;3.00;;;18.30;99.90;;;;;;5036601;28;20181;-69
2023/09/16 07:07:14;;;;;;;3.75;3.03;;;18.40;99.90;;;;;;5049201;28;20174;-69
2023/09/16 07:09:42;;;;;;;3.60;3.30;;;18.40;99.90;;;;;;5035144;28;20194;-69
2023/09/16 07:12:10;;;;;;;3.42;2.90;;;18.50;99.90;;;;;;5045410;28;20201;-68
2023/09/16 07:14:41;;;;;;;3.45;2.80;;;18.60;99.90;;;;;;5056635;28;20239;-65
2023/09/16 07:17:07;;;;;;;3.97;3.00;;;18.70;99.90;;;;;;5038237;28;20197;-68
2023/09/16 07:19:33;;;;;;;3.50;2.95;;;18.80;99.90;;;;;;5044723;28;20215;-68
2023/09/16 07:22:01;;;;;;;3.05;2.63;;;18.90;99.90;;;;;;5039350;28;20204;-70
2023/09/16 07:24:27;;;;;;;3.63;2.72;;;19.00;99.90;;;;;;5044978;28;20272;-69
2023/09/16 07:26:57;;;;;;;2.97;2.70;;;19.10;99.90;;;;;;5045144;28;20202;-70
2023/09/16 07:29:23;;;;;;;3.30;2.90;;;19.20;99.90;;;;;;5040805;28;20254;-70
2023/09/16 07:31:49;;;;;;;3.75;3.25;;;19.30;99.90;;;;;;5072061;28;20264;-68
2023/09/16 07:34:19;;;;;;;3.92;2.72;;;19.30;99.90;;;;;;5041643;28;20235;-70
2023/09/16 07:36:47;;;;;;;3.47;3.00;;;19.40;99.90;;;;;;5052491;28;20174;-66
2023/09/16 07:39:15;;;;;;;3.75;2.88;;;19.50;99.90;;;;;;5024949;28;20198;-69
2023/09/16 07:41:41;;;;;;;3.10;2.80;;;19.60;99.90;;;;;;5055871;28;20197;-69
2023/09/16 07:44:07;;;;;;;3.22;2.70;;;19.70;99.90;;;;;;5038428;28;20177;-66
2023/09/16 07:46:34;;;;;;;3.13;2.83;;;19.80;99.90;;;;;;5040937;28;20188;-69
2023/09/16 07:49:04;;;;;;;2.95;2.67;;;19.80;99.90;;;;;;5056203;28;20225;-70
2023/09/16 07:51:30;;;;;;;3.15;2.72;;;19.90;99.90;;;;;;5053603;28;20205;-65
2023/09/16 07:53:55;;;;;;;3.53;2.85;;;20.00;99.90;;;;;;5039208;28;20266;-70
2023/09/16 07:56:28;;;;;;;3.55;2.85;;;20.10;99.90;;;;;;5055521;28;20173;-69
2023/09/16 07:58:56;;;;;;;4.68;2.95;;;20.20;99.90;;;;;;5072255;28;20182;-70
2023/09/16 08:01:22;;;;;;;3.78;2.60;;;20.20;99.90;;;;;;5055433;28;20177;-69
2023/09/16 08:03:48;;;;;;;5.88;2.88;;;20.30;99.90;;;;;;5038755;28;20184;-70
2023/09/16 08:06:13;;;;;;;3.20;2.80;;;20.40;99.90;;;;;;5038800;28;20287;-71
2023/09/16 08:08:39;;;;;;;3.28;2.67;;;20.50;99.90;;;;;;5039077;28;20185;-68
2023/09/16 08:11:09;;;;;;;4.18;2.75;;;20.60;99.90;;;;;;5048690;28;20274;-70
2023/09/16 08:13:37;;;;;;;5.60;2.78;;;20.60;99.90;;;;;;5038262;28;20209;-70
2023/09/16 08:16:07;;;;;;;3.42;2.60;;;20.70;99.90;;;;;;5071646;28;20197;-70
2023/09/16 08:18:33;;;;;;;3.25;2.45;;;20.80;99.90;;;;;;5047482;28;20170;-71
2023/09/16 08:21:03;;;;;;;3.00;2.70;;;20.90;99.90;;;;;;5052836;28;20174;-69
2023/09/16 08:23:30;;;;;;;2.90;2.60;;;21.00;99.90;;;;;;5051649;28;20432;-69
2023/09/16 08:25:58;;;;;;;3.13;2.50;;;21.00;99.90;;;;;;5038045;28;20165;-70
2023/09/16 08:28:24;;;;;;;2.60;2.40;;;21.10;99.90;;;;;;5045170;28;20182;-69
2023/09/16 08:30:55;;;;;;;3.10;2.45;;;21.20;99.90;;;;;;5042915;28;20181;-70
2023/09/16 08:33:23;;;;;;;3.70;2.60;;;21.30;99.90;;;;;;5024657;28;20208;-70
2023/09/16 08:35:48;;;;;;;2.83;2.63;;;21.40;99.90;;;;;;5039267;28;20212;-69
2023/09/16 08:38:14;;;;;;;2.92;2.63;;;21.50;99.90;;;;;;5054693;28;20193;-72
2023/09/16 08:40:43;;;;;;;2.88;2.67;;;21.60;99.90;;;;;;5062277;28;20177;-70
2023/09/16 08:43:20;;;;;;;2.50;2.30;;;21.70;99.90;;;;;;5071442;28;20268;-69
2023/09/16 08:45:58;;;;;;;2.90;2.60;;;21.80;99.90;;;;;;5070736;28;20185;-69
2023/09/16 08:48:28;;;;;;;2.50;2.30;;;21.90;99.90;;;;;;5034812;28;20185;-70
2023/09/16 08:50:55;;;;;;;2.70;2.50;;;22.00;99.90;;;;;;5037099;28;20201;-67
2023/09/16 08:53:27;;;;;;;3.03;2.50;;;22.10;99.90;;;;;;5052813;28;20216;-70
2023/09/16 08:55:55;;;;;;;2.88;2.50;;;22.10;99.90;;;;;;5052958;28;20177;-70
2023/09/16 08:58:30;;;;;;;2.53;2.30;;;22.20;99.90;;;;;;5055818;28;20287;-68
2023/09/16 09:00:57;;;;;;;2.80;2.60;;;22.40;99.90;;;;;;5035570;28;20201;-68
2023/09/16 09:03:23;;;;;;;3.25;2.80;;;22.50;99.90;;;;;;5051030;28;20174;-69
2023/09/16 09:05:52;;;;;;;4.07;2.55;;;22.60;99.90;;;;;;5052704;28;20284;-68
2023/09/16 09:08:18;;;;;;;2.80;2.53;;;22.60;99.90;;;;;;5053558;28;20179;-68
2023/09/16 09:10:47;;;;;;;2.78;2.35;;;22.80;99.90;;;;;;5055172;28;20181;-69
2023/09/16 09:13:13;;;;;;;2.70;2.50;;;22.90;99.90;;;;;;5052797;28;20444;-68
2023/09/16 09:15:48;;;;;;;3.85;2.78;;;23.00;99.90;;;;;;5051466;28;20169;-69
2023/09/16 09:18:19;;;;;;;3.30;2.78;;;23.00;99.90;;;;;;5036929;28;20192;-69
2023/09/16 09:20:48;;;;;;;3.22;2.92;;;23.20;99.90;;;;;;5051563;28;20208;-70
2023/09/16 09:23:14;;;;;;;3.03;2.72;;;23.30;99.90;;;;;;5051814;28;20206;-67
2023/09/16 09:25:43;;;;;;;2.95;2.65;;;23.30;99.90;;;;;;5052003;28;20177;-70
2023/09/16 09:28:09;;;;;;;2.85;2.58;;;23.40;99.90;;;;;;5052335;28;20204;-71
2023/09/16 09:30:35;;;;;;;3.00;2.70;;;23.60;99.90;;;;;;5052036;28;20186;-72
2023/09/16 09:33:03;;;;;;;3.10;2.80;;;23.60;99.90;;;;;;5056791;28;20197;-70
2023/09/16 09:35:35;;;;;;;2.90;2.30;;;23.70;99.90;;;;;;5053202;28;20200;-71
2023/09/16 09:38:05;;;;;;;2.72;2.50;;;23.90;99.90;;;;;;5051975;28;20188;-71
2023/09/16 09:40:31;;;;;;;2.47;2.28;;;24.00;99.90;;;;;;5053039;28;20246;-71
2023/09/16 09:42:59;;;;;;;3.13;2.83;;;24.10;99.90;;;;;;5052549;28;20343;-69
2023/09/16 09:45:28;;;;;;;2.60;2.40;;;24.50;99.90;;;;;;5054783;28;20177;-70
2023/09/16 09:47:55;;;;;;;6.85;2.83;;;25.10;99.90;;;;;;5051596;28;20192;-70
2023/09/16 09:50:32;;;;;;;2.60;2.20;;;25.80;99.90;;;;;;5052619;28;20311;-67
2023/09/16 09:53:04;;;;;;;3.00;2.55;;;26.40;99.90;;;;;;5040314;28;20201;-69
2023/09/16 09:55:30;;;;;;;3.10;2.70;;;27.10;99.90;;;;;;5052183;28;20180;-69
2023/09/16 09:57:56;;;;;;;2.47;2.20;;;27.60;99.90;;;;;;5050320;28;20198;-67
2023/09/16 10:00:23;;;;;;;2.50;2.30;;;28.20;99.90;;;;;;5043155;28;20177;-70
2023/09/16 10:02:50;;;;;;;4.03;2.05;;;28.70;99.90;;;;;;5050898;28;21105;-66
2023/09/16 10:05:21;;;;;;;2.58;2.38;;;29.10;99.90;;;;;;5050511;28;20213;-70
2023/09/16 10:07:51;;;;;;;2.17;2.03;;;29.40;99.90;;;;;;5051238;28;20181;-72
2023/09/16 10:10:21;;;;;;;2.55;2.35;;;29.70;99.90;;;;;;5051272;28;20263;-69
2023/09/16 10:12:50;;;;;;;2.30;2.10;;;29.90;99.90;;;;;;5034322;28;20197;-70
2023/09/16 10:15:16;;;;;;;2.78;2.47;;;30.00;99.90;;;;;;5050200;28;20173;-69
2023/09/16 10:17:45;;;;;;;3.08;2.45;;;30.10;99.90;;;;;;5052142;28;20299;-70
2023/09/16 10:20:18;;;;;;;2.85;2.30;;;30.20;99.90;;;;;;5051629;28;20242;-69
2023/09/16 10:22:47;;;;;;;2.42;2.20;;;30.20;99.90;;;;;;5050219;28;20185;-71
2023/09/16 10:25:13;;;;;;;3.35;2.33;;;30.20;99.90;;;;;;5051341;28;20181;-64
2023/09/16 10:27:52;;;;;;;2.70;2.50;;;30.30;99.90;;;;;;5052208;28;20247;-70
2023/09/16 10:30:20;;;;;;;2.47;2.28;;;30.60;99.90;;;;;;5039974;28;20254;-70
2023/09/16 10:32:46;;;;;;;3.45;2.70;;;30.80;99.90;;;;;;5051387;28;20204;-69
2023/09/16 10:35:14;;;;;;;2.90;2.70;;;31.00;99.90;;;;;;5052659;28;20278;-71
2023/09/16 10:37:43;;;;;;;3.03;2.70;;;31.20;99.90;;;;;;5051074;28;20275;-70
2023/09/16 10:40:10;;;;;;;2.60;2.40;;;31.30;99.90;;;;;;5051574;28;20208;-69
2023/09/16 10:42:37;;;;;;;2.90;2.60;;;31.50;99.90;;;;;;5051727;28;20185;-70
2023/09/16 10:45:11;;;;;;;2.70;2.50;;;31.60;99.90;;;;;;5051666;28;20184;-69
2023/09/16 10:47:37;;;;;;;2.60;2.30;;;31.70;99.90;;;;;;5050547;28;20257;-70
2023/09/16 10:50:05;;;;;;;2.63;2.40;;;31.90;99.90;;;;;;5056095;28;20179;-70
2023/09/16 10:52:47;;;;;;;2.60;2.40;;;32.00;99.90;;;;;;5054915;28;20184;-66
2023/09/16 10:55:22;;;;;;;2.92;2.67;;;32.00;99.90;;;;;;5055419;28;20192;-69
2023/09/16 10:58:09;;;;;;;3.38;2.35;;;31.90;99.90;;;;;;5054414;28;20290;-69
2023/09/16 11:00:56;;;;;;;2.42;2.22;;;32.00;99.90;;;;;;5042253;28;20399;-69
2023/09/16 11:03:28;;;;;;;2.63;2.35;;;32.00;99.90;;;;;;5054072;28;20192;-69
2023/09/16 11:05:58;;;;;;;2.55;2.35;;;32.10;99.90;;;;;;5055691;28;20200;-70
2023/09/16 11:08:29;;;;;;;3.17;2.80;;;32.20;99.90;;;;;;5070741;28;20184;-66
2023/09/16 11:10:58;;;;;;;2.55;2.35;;;32.20;99.90;;;;;;5039845;28;20181;-70
2023/09/16 11:13:30;;;;;;;2.80;2.38;;;32.10;99.90;;;;;;5055637;28;20278;-70
2023/09/16 11:16:02;;;;;;;2.67;2.42;;;32.10;99.90;;;;;;5053898;28;20533;-68
2023/09/16 11:18:39;;;;;;;4.22;2.55;;;32.20;99.90;;;;;;5052766;28;20184;-69
2023/09/16 11:21:07;;;;;;;2.70;2.50;;;32.20;99.90;;;;;;5054182;28;20257;-71
2023/09/16 11:23:33;;;;;;;2.78;2.55;;;32.30;99.90;;;;;;5054506;28;20176;-69
2023/09/16 11:26:02;;;;;;;2.90;2.58;;;32.30;99.90;;;;;;5052528;28;20199;-68
2023/09/16 11:28:30;;;;;;;2.55;2.35;;;32.30;99.90;;;;;;5053874;28;20204;-70
2023/09/16 11:31:01;;;;;;;2.55;2.35;;;32.30;99.90;;;;;;5054287;28;20204;-71
2023/09/16 11:33:37;;;;;;;2.65;2.45;;;32.30;99.90;;;;;;5055566;28;20197;-68
2023/09/16 11:36:15;;;;;;;2.30;2.10;;;32.30;99.90;;;;;;5052990;28;20363;-70
2023/09/16 11:39:06;;;;;;;3.08;2.70;;;32.30;99.90;;;;;;5055967;28;20188;-70
2023/09/16 11:41:32;;;;;;;2.72;2.25;;;32.40;99.90;;;;;;5027500;28;20192;-69
2023/09/16 11:43:58;;;;;;;2.80;2.53;;;32.40;99.90;;;;;;5054216;28;20284;-70
2023/09/16 11:46:29;;;;;;;2.53;2.33;;;32.40;99.90;;;;;;5053872;28;20259;-70
2023/09/16 11:48:57;;;;;;;2.55;2.35;;;32.40;99.90;;;;;;5054097;28;20201;-71
2023/09/16 11:51:27;;;;;;;2.53;2.33;;;32.50;99.90;;;;;;5053688;28;20203;-70
2023/09/16 11:53:55;;;;;;;2.80;2.60;;;32.40;99.90;;;;;;5054355;28;20196;-69
2023/09/16 11:56:27;;;;;;;3.17;2.60;;;32.40;99.90;;;;;;5053400;28;20174;-71
2023/09/16 11:58:54;;;;;;;2.85;2.55;;;32.40;99.90;;;;;;5054816;28;20226;-70
2023/09/16 12:01:25;;;;;;;3.00;2.70;;;32.40;99.90;;;;;;5056380;28;20240;-69
2023/09/16 12:03:50;;;;;;;2.70;2.50;;;32.50;99.90;;;;;;5055015;28;20745;-66
2023/09/16 12:06:18;;;;;;;2.97;2.70;;;32.50;99.90;;;;;;5053131;28;20200;-71
2023/09/16 12:08:47;;;;;;;5.55;2.30;;;32.60;99.90;;;;;;5052422;28;20202;-72
2023/09/16 12:11:15;;;;;;;2.60;2.40;;;32.70;99.90;;;;;;5042803;28;20199;-71
2023/09/16 12:13:44;;;;;;;2.60;2.40;;;32.70;99.90;;;;;;5054924;28;20205;-72
2023/09/16 12:16:10;;;;;;;2.40;2.20;;;32.80;99.90;;;;;;5052587;28;20176;-72
2023/09/16 12:18:38;;;;;;;2.50;2.30;;;32.80;99.90;;;;;;5053750;28;20168;-69
2023/09/16 12:21:06;;;;;;;2.30;2.10;;;33.00;99.90;;;;;;5052750;28;20255;-72
2023/09/16 12:23:31;;;;;;;2.65;2.42;;;32.90;99.90;;;;;;5052118;28;20188;-71
2023/09/16 12:26:00;;;;;;;2.60;2.40;;;33.00;99.90;;;;;;5054290;28;20188;-69
2023/09/16 12:28:27;;;;;;;2.72;2.30;;;33.00;99.90;;;;;;5052332;28;20189;-69
2023/09/16 12:30:55;;;;;;;2.30;2.10;;;33.10;99.90;;;;;;5051979;28;20215;-71
2023/09/16 12:33:39;;;;;;;2.40;2.20;;;33.10;99.90;;;;;;5053693;28;20246;-73
2023/09/16 12:36:07;;;;;;;2.25;2.05;;;33.20;99.90;;;;;;5042663;28;20204;-72
2023/09/16 12:38:34;;;;;;;2.67;2.47;;;33.30;99.90;;;;;;5053734;28;20193;-71
2023/09/16 12:41:04;;;;;;;3.80;2.50;;;33.30;99.90;;;;;;5053454;28;20191;-71
2023/09/16 12:43:35;;;;;;;2.50;2.30;;;33.40;99.90;;;;;;5036051;28;20204;-72
2023/09/16 12:46:02;;;;;;;2.28;2.08;;;33.50;99.90;;;;;;5039114;28;20934;-72
2023/09/16 12:48:29;;;;;;;2.55;2.35;;;33.50;99.90;;;;;;5052253;28;20219;-71
2023/09/16 12:50:57;;;;;;;2.40;2.10;;;33.50;99.90;;;;;;5043273;28;20219;-71